createdAt,value
2023-02-24T00:02:03.525Z,21.93
2023-02-24T00:04:34.822Z,20.40
2023-02-24T00:07:02.147Z,22.93
2023-02-24T00:09:31.045Z,20.63
2023-02-24T00:12:04.257Z,21.70
2023-02-24T00:14:37.328Z,19.93
2023-02-24T00:17:07.209Z,21.63
2023-02-24T00:19:34.222Z,19.70
2023-02-24T00:22:07.105Z,20.87
2023-02-24T00:24:34.799Z,20.90
2023-02-24T00:27:06.863Z,21.53
2023-02-24T00:29:33.919Z,20.93
2023-02-24T00:32:01.810Z,20.23
2023-02-24T00:34:32.794Z,19.83
2023-02-24T00:36:59.779Z,20.70
2023-02-24T00:39:32.571Z,21.23
2023-02-24T00:42:06.203Z,21.90
2023-02-24T00:44:40.772Z,20.37
2023-02-24T00:47:10.040Z,19.17
2023-02-24T00:49:41.513Z,21.67
2023-02-24T00:52:19.865Z,20.90
2023-02-24T00:54:49.039Z,18.83
2023-02-24T00:57:20.499Z,19.70
2023-02-24T00:59:47.063Z,20.10
2023-02-24T01:02:14.750Z,19.47
2023-02-24T01:04:43.499Z,18.90
2023-02-24T01:07:12.150Z,20.90
2023-02-24T01:09:41.069Z,19.33
2023-02-24T01:12:22.859Z,19.67
2023-02-24T01:14:52.144Z,18.57
2023-02-24T01:17:20.760Z,20.47
2023-02-24T01:19:48.861Z,18.70
2023-02-24T01:22:18.265Z,18.60
2023-02-24T01:24:45.589Z,20.10
2023-02-24T01:27:19.176Z,22.87
2023-02-24T01:29:47.650Z,21.27
2023-02-24T01:32:19.936Z,20.67
2023-02-24T01:34:50.673Z,20.50
2023-02-24T01:37:18.496Z,18.57
2023-02-24T01:39:45.635Z,19.00
2023-02-24T01:42:19.964Z,20.63
2023-02-24T01:45:14.804Z,20.07
2023-02-24T01:47:43.042Z,18.87
2023-02-24T01:50:14.420Z,20.30
2023-02-24T01:52:44.568Z,20.77
2023-02-24T01:55:28.457Z,19.10
2023-02-24T01:57:59.904Z,19.93
2023-02-24T02:00:44.310Z,19.97
2023-02-24T02:03:27.401Z,19.10
2023-02-24T02:06:07.356Z,18.53
2023-02-24T02:08:37.808Z,19.13
2023-02-24T02:11:10.077Z,18.90
2023-02-24T02:13:44.376Z,18.33
2023-02-24T02:16:46.622Z,19.30
2023-02-24T02:24:03.662Z,18.80
2023-02-24T02:30:43.723Z,18.83
2023-02-24T02:33:49.016Z,16.83
2023-02-24T02:37:25.088Z,18.83
2023-02-24T02:40:14.582Z,18.90
2023-02-24T02:44:08.652Z,19.63
2023-02-24T02:47:13.419Z,18.67
2023-02-24T02:49:51.568Z,18.40
2023-02-24T02:52:37.952Z,19.10
2023-02-24T02:55:23.092Z,18.13
2023-02-24T02:57:56.144Z,18.00
2023-02-24T03:00:34.366Z,18.03
2023-02-24T03:03:13.290Z,17.63
2023-02-24T03:05:56.339Z,18.20
2023-02-24T03:08:28.886Z,17.90
2023-02-24T03:11:01.355Z,18.70
2023-02-24T03:13:36.006Z,18.37
2023-02-24T03:16:05.613Z,18.50
2023-02-24T03:18:50.057Z,17.83
2023-02-24T03:21:46.092Z,18.20
2023-02-24T03:24:14.840Z,17.80
2023-02-24T03:27:56.105Z,18.43
2023-02-24T03:30:43.618Z,17.23
2023-02-24T03:33:30.024Z,18.50
2023-02-24T03:36:01.023Z,17.73
2023-02-24T03:38:32.367Z,17.80
2023-02-24T03:40:59.122Z,17.47
2023-02-24T03:43:32.310Z,18.17
2023-02-24T03:46:00.718Z,17.43
2023-02-24T03:48:28.380Z,17.53
2023-02-24T03:50:55.887Z,17.20
2023-02-24T03:54:03.077Z,17.50
2023-02-24T03:57:11.672Z,17.97
2023-02-24T04:00:24.968Z,16.43
2023-02-24T04:03:45.088Z,16.97
2023-02-24T04:06:50.778Z,16.80
2023-02-24T04:10:38.526Z,16.50
2023-02-24T04:13:34.507Z,16.27
2023-02-24T04:17:32.233Z,16.10
2023-02-24T04:20:15.447Z,16.20
2023-02-24T04:22:50.851Z,15.97
2023-02-24T04:25:23.869Z,16.63
2023-02-24T04:28:00.108Z,17.67
2023-02-24T04:30:33.591Z,15.80
2023-02-24T04:33:00.571Z,16.90
2023-02-24T04:35:27.625Z,16.87
2023-02-24T04:37:54.835Z,16.63
2023-02-24T04:40:22.674Z,17.23
2023-02-24T04:42:51.561Z,16.00
2023-02-24T04:45:31.038Z,16.63
2023-02-24T04:48:01.366Z,15.70
2023-02-24T04:50:36.203Z,15.57
2023-02-24T04:53:10.563Z,17.07
2023-02-24T04:55:47.769Z,14.87
2023-02-24T04:58:21.335Z,15.63
2023-02-24T05:00:54.964Z,15.73
2023-02-24T05:03:28.685Z,14.33
2023-02-24T05:05:59.874Z,15.60
2023-02-24T05:08:28.809Z,14.63
2023-02-24T05:10:57.738Z,14.50
2023-02-24T05:13:31.044Z,11.47
2023-02-24T05:16:08.450Z,14.17
2023-02-24T05:18:36.316Z,14.23
2023-02-24T05:21:35.014Z,15.13
2023-02-24T05:24:10.789Z,15.20
2023-02-24T05:26:40.922Z,15.97
2023-02-24T05:29:08.125Z,15.37
2023-02-24T05:31:36.209Z,14.73
2023-02-24T05:34:06.891Z,15.00
2023-02-24T05:36:39.519Z,15.07
2023-02-24T05:39:07.181Z,15.13
2023-02-24T05:41:38.018Z,12.97
2023-02-24T05:44:09.976Z,12.50
2023-02-24T05:46:41.628Z,12.13
2023-02-24T05:49:22.493Z,13.23
2023-02-24T05:51:53.856Z,13.57
2023-02-24T05:54:32.669Z,13.60
2023-02-24T05:57:11.091Z,13.90
2023-02-24T05:59:42.130Z,12.93
2023-02-24T06:02:13.219Z,12.83
2023-02-24T06:04:53.033Z,12.33
2023-02-24T06:07:24.033Z,13.20
2023-02-24T06:09:56.712Z,13.13
2023-02-24T06:12:27.949Z,13.23
2023-02-24T06:14:54.490Z,14.33
2023-02-24T06:17:22.161Z,13.23
2023-02-24T06:19:52.061Z,12.87
2023-02-24T06:22:22.644Z,12.67
2023-02-24T06:24:49.653Z,12.67
2023-02-24T06:27:18.977Z,14.17
2023-02-24T06:29:51.745Z,12.53
2023-02-24T06:32:23.510Z,14.27
2023-02-24T06:34:51.706Z,12.97
2023-02-24T06:37:18.378Z,12.73
2023-02-24T06:39:45.401Z,13.20
2023-02-24T06:42:13.005Z,13.23
2023-02-24T06:44:41.140Z,13.80
2023-02-24T06:47:13.445Z,13.10
2023-02-24T06:49:41.956Z,11.73
2023-02-24T06:52:10.188Z,13.00
2023-02-24T06:54:36.635Z,12.23
2023-02-24T06:57:03.775Z,13.07
2023-02-24T06:59:31.382Z,11.53
2023-02-24T07:02:01.038Z,11.23
2023-02-24T07:04:28.964Z,11.60
2023-02-24T07:07:02.179Z,12.80
2023-02-24T07:09:30.319Z,12.33
2023-02-24T07:11:57.996Z,12.00
2023-02-24T07:14:27.135Z,11.40
2023-02-24T07:16:54.066Z,12.03
2023-02-24T07:19:26.675Z,11.63
2023-02-24T07:21:59.250Z,11.57
2023-02-24T07:24:38.402Z,11.80
2023-02-24T07:27:22.645Z,12.40
2023-02-24T07:29:52.936Z,11.97
2023-02-24T07:32:24.665Z,11.87
2023-02-24T07:34:51.132Z,11.97
2023-02-24T07:37:19.615Z,11.87
2023-02-24T07:39:46.645Z,12.33
2023-02-24T07:42:13.128Z,12.00
2023-02-24T07:44:39.580Z,11.47
2023-02-24T07:47:07.448Z,12.83
2023-02-24T07:49:34.575Z,11.43
2023-02-24T07:52:01.203Z,12.17
2023-02-24T07:54:29.209Z,12.80
2023-02-24T07:56:58.264Z,11.83
2023-02-24T07:59:36.818Z,11.93
2023-02-24T08:02:06.796Z,12.20
2023-02-24T08:04:35.517Z,11.77
2023-02-24T08:07:03.710Z,11.90
2023-02-24T08:09:45.703Z,11.50
2023-02-24T08:12:20.387Z,12.67
2023-02-24T08:14:51.434Z,13.67
2023-02-24T08:17:26.876Z,13.17
2023-02-24T08:20:13.468Z,12.53
2023-02-24T08:22:51.265Z,12.73
2023-02-24T08:25:21.887Z,13.97
2023-02-24T08:28:06.452Z,14.67
2023-02-24T08:30:39.389Z,14.00
2023-02-24T08:33:17.022Z,14.40
2023-02-24T08:35:44.125Z,15.67
2023-02-24T08:38:17.971Z,16.23
2023-02-24T08:40:54.095Z,14.17
2023-02-24T08:43:34.446Z,13.73
2023-02-24T08:47:04.408Z,14.03
2023-02-24T08:49:32.539Z,14.53
2023-02-24T08:52:01.557Z,14.03
2023-02-24T08:54:31.167Z,14.20
2023-02-24T08:57:07.340Z,14.30
2023-02-24T08:59:48.885Z,14.40
2023-02-24T09:02:26.454Z,13.10
2023-02-24T09:05:28.102Z,13.87
2023-02-24T09:07:55.346Z,12.67
2023-02-24T09:10:22.294Z,13.60
2023-02-24T09:12:48.838Z,13.10
2023-02-24T09:15:15.706Z,13.63
2023-02-24T09:17:44.679Z,12.33
2023-02-24T09:20:26.955Z,12.37
2023-02-24T09:23:06.572Z,12.63
2023-02-24T09:25:43.998Z,12.87
2023-02-24T09:28:18.352Z,12.30
2023-02-24T09:30:57.864Z,12.50
2023-02-24T09:33:40.877Z,12.57
2023-02-24T09:36:19.327Z,12.33
2023-02-24T09:39:01.349Z,12.80
2023-02-24T09:41:52.991Z,12.27
2023-02-24T09:44:41.056Z,12.60
2023-02-24T09:47:39.481Z,12.00
2023-02-24T09:51:01.708Z,12.67
2023-02-24T09:53:41.093Z,11.17
2023-02-24T09:56:31.936Z,11.87
2023-02-24T09:59:29.266Z,11.73
2023-02-24T10:02:41.252Z,11.70
2023-02-24T10:06:11.341Z,10.67
2023-02-24T10:08:45.672Z,11.70
2023-02-24T10:11:14.013Z,11.23
2023-02-24T10:14:03.427Z,10.70
2023-02-24T10:16:40.721Z,10.33
2023-02-24T10:22:02.607Z,9.53
2023-02-24T10:24:47.984Z,10.03
2023-02-24T10:28:24.758Z,10.30
2023-02-24T10:31:25.451Z,10.33
2023-02-24T10:34:24.567Z,10.53
2023-02-24T10:36:52.229Z,10.83
2023-02-24T10:39:27.647Z,10.70
2023-02-24T10:42:16.725Z,10.20
2023-02-24T10:45:01.276Z,11.63
2023-02-24T10:47:30.410Z,10.60
2023-02-24T10:50:11.904Z,11.33
2023-02-24T10:52:50.309Z,11.67
2023-02-24T10:55:52.826Z,10.27
2023-02-24T10:58:44.012Z,11.40
2023-02-24T11:01:48.621Z,11.43
2023-02-24T11:04:32.793Z,10.50
2023-02-24T11:07:24.261Z,10.83
2023-02-24T11:10:25.287Z,10.90
2023-02-24T11:13:13.015Z,11.67
2023-02-24T11:16:13.024Z,10.77
2023-02-24T11:18:49.182Z,11.03
2023-02-24T11:21:17.210Z,11.40
2023-02-24T11:23:54.808Z,10.90
2023-02-24T11:26:37.744Z,11.20
2023-02-24T11:31:13.718Z,11.63
2023-02-24T11:34:41.240Z,11.90
2023-02-24T11:37:38.289Z,12.47
2023-02-24T11:41:09.467Z,12.87
2023-02-24T11:43:42.505Z,11.17
2023-02-24T11:46:25.238Z,10.80
2023-02-24T11:48:57.795Z,12.27
2023-02-24T11:51:32.116Z,10.70
2023-02-24T11:54:10.701Z,11.37
2023-02-24T11:56:47.636Z,10.55
2023-02-24T11:59:36.213Z,11.03
2023-02-24T12:04:19.531Z,11.48
2023-02-24T12:07:29.258Z,12.15
2023-02-24T12:11:40.886Z,11.73
2023-02-24T12:14:27.693Z,13.37
2023-02-24T12:17:57.167Z,12.33
2023-02-24T12:21:00.119Z,14.13
2023-02-24T12:23:40.415Z,13.05
2023-02-24T12:27:48.388Z,13.07
2023-02-24T12:30:47.958Z,12.43
2023-02-24T12:33:48.469Z,12.27
2023-02-24T12:37:19.139Z,12.60
2023-02-24T12:40:22.656Z,13.73
2023-02-24T12:46:14.122Z,12.73
2023-02-24T12:53:50.362Z,12.50
2023-02-24T12:56:27.069Z,12.70
2023-02-24T12:59:04.636Z,12.68
2023-02-24T13:01:52.431Z,12.57
2023-02-24T13:04:42.841Z,13.37
2023-02-24T13:07:41.352Z,12.95
2023-02-24T13:12:26.414Z,11.35
2023-02-24T13:14:53.253Z,12.32
2023-02-24T13:17:26.169Z,12.25
2023-02-24T13:19:55.058Z,12.82
2023-02-24T13:22:29.114Z,12.27
2023-02-24T13:25:18.463Z,12.82
2023-02-24T13:28:03.235Z,13.15
2023-02-24T13:30:41.739Z,12.15
2023-02-24T13:33:28.606Z,12.50
2023-02-24T13:36:21.200Z,12.77
2023-02-24T13:39:06.310Z,12.70
2023-02-24T13:41:40.018Z,13.13
2023-02-24T13:44:28.137Z,13.35
2023-02-24T13:51:58.881Z,13.37
2023-02-24T13:55:54.781Z,13.03
2023-02-24T14:00:38.537Z,12.97
2023-02-24T14:03:26.088Z,12.87
2023-02-24T14:05:54.479Z,13.70
2023-02-24T14:08:39.523Z,14.20
2023-02-24T14:11:11.617Z,14.90
2023-02-24T14:13:39.140Z,14.00
2023-02-24T14:16:09.194Z,13.57
2023-02-24T14:18:36.583Z,13.70
2023-02-24T14:21:03.760Z,14.10
2023-02-24T14:23:33.877Z,13.90
2023-02-24T14:26:11.250Z,14.03
2023-02-24T14:28:41.263Z,14.60
2023-02-24T14:31:13.801Z,14.43
2023-02-24T14:33:44.077Z,13.70
2023-02-24T14:36:41.931Z,13.47
2023-02-24T14:39:16.681Z,14.40
2023-02-24T14:41:44.353Z,14.30
2023-02-24T14:44:29.645Z,14.30
2023-02-24T14:47:05.727Z,14.77
2023-02-24T14:49:35.495Z,14.87
2023-02-24T14:53:51.990Z,14.73
2023-02-24T14:56:23.018Z,14.87
2023-02-24T14:59:08.022Z,14.93
2023-02-24T15:01:42.851Z,14.90
2023-02-24T15:06:39.904Z,14.63
2023-02-24T15:09:24.851Z,13.23
2023-02-24T15:11:54.882Z,15.23
2023-02-24T15:14:27.501Z,14.30
2023-02-24T15:17:09.322Z,15.60
2023-02-24T15:19:44.966Z,15.43
2023-02-24T15:22:33.821Z,14.53
2023-02-24T15:25:41.909Z,15.00
2023-02-24T15:28:31.903Z,15.97
2023-02-24T15:31:19.146Z,15.20
2023-02-24T15:33:59.259Z,14.17
2023-02-24T15:36:33.266Z,14.70
2023-02-24T15:39:15.577Z,14.20
2023-02-24T15:41:46.364Z,13.23
2023-02-24T15:44:33.188Z,14.63
2023-02-24T15:47:25.609Z,15.27
2023-02-24T15:49:52.133Z,14.17
2023-02-24T15:52:28.810Z,14.57
2023-02-24T15:54:57.153Z,14.63
2023-02-24T15:57:24.326Z,14.57
2023-02-24T15:59:51.152Z,14.97
2023-02-24T16:02:21.428Z,15.27
2023-02-24T16:04:49.977Z,14.73
2023-02-24T16:07:22.029Z,14.87
2023-02-24T16:09:53.798Z,15.20
2023-02-24T16:12:31.340Z,15.00
2023-02-24T16:15:02.274Z,15.20
2023-02-24T16:17:42.342Z,15.67
2023-02-24T16:20:26.465Z,14.90
2023-02-24T16:23:04.445Z,16.17
2023-02-24T16:25:43.560Z,13.77
2023-02-24T16:28:20.002Z,15.10
2023-02-24T16:30:49.383Z,14.00
2023-02-24T16:33:18.538Z,14.93
2023-02-24T16:35:45.393Z,13.70
2023-02-24T16:38:20.499Z,15.50
2023-02-24T16:40:49.452Z,14.87
2023-02-24T16:43:16.309Z,14.30
2023-02-24T16:45:45.141Z,13.30
2023-02-24T16:48:36.375Z,14.00
2023-02-24T16:51:07.536Z,13.97
2023-02-24T16:53:34.662Z,14.50
2023-02-24T16:56:01.244Z,14.80
2023-02-24T16:58:27.917Z,13.90
2023-02-24T17:00:59.606Z,14.00
2023-02-24T17:03:32.911Z,13.23
2023-02-24T17:05:59.587Z,14.00
2023-02-24T17:08:26.203Z,13.50
2023-02-24T17:10:53.003Z,14.03
2023-02-24T17:13:21.492Z,13.53
2023-02-24T17:15:54.387Z,14.60
2023-02-24T17:18:23.298Z,13.17
2023-02-24T17:20:50.182Z,13.30
2023-02-24T17:23:16.710Z,13.67
2023-02-24T17:25:44.056Z,13.03
2023-02-24T17:28:11.093Z,12.37
2023-02-24T17:30:38.678Z,13.67
2023-02-24T17:33:06.335Z,13.87
2023-02-24T17:35:32.877Z,14.97
2023-02-24T17:37:59.332Z,13.33
2023-02-24T17:40:25.857Z,14.43
2023-02-24T17:42:52.353Z,13.63
2023-02-24T17:45:19.161Z,12.63
2023-02-24T17:47:45.753Z,13.07
2023-02-24T17:50:13.088Z,12.70
2023-02-24T17:52:40.150Z,13.00
2023-02-24T17:55:08.075Z,12.27
2023-02-24T17:57:35.945Z,12.43
2023-02-24T18:00:04.141Z,14.50
2023-02-24T18:02:30.817Z,17.00
2023-02-24T18:04:57.349Z,15.77
2023-02-24T18:07:24.524Z,15.80
2023-02-24T18:09:51.731Z,14.90
2023-02-24T18:12:20.083Z,14.47
2023-02-24T18:14:56.166Z,16.67
2023-02-24T18:17:29.122Z,16.70
2023-02-24T18:19:55.673Z,16.43
2023-02-24T18:22:22.745Z,17.63
2023-02-24T18:24:49.378Z,16.47
2023-02-24T18:27:16.120Z,16.43
2023-02-24T18:29:43.130Z,15.80
2023-02-24T18:32:10.227Z,17.23
2023-02-24T18:34:36.972Z,16.33
2023-02-24T18:37:03.497Z,15.63
2023-02-24T18:39:30.106Z,15.73
2023-02-24T18:41:59.312Z,14.97
2023-02-24T18:44:26.048Z,15.50
2023-02-24T18:46:52.572Z,12.67
2023-02-24T18:49:19.080Z,14.70
2023-02-24T18:51:47.908Z,15.50
2023-02-24T18:54:14.912Z,16.20
2023-02-24T18:56:41.481Z,15.07
2023-02-24T18:59:07.970Z,14.00
2023-02-24T19:01:38.187Z,13.20
2023-02-24T19:04:07.140Z,14.23
2023-02-24T19:06:35.678Z,16.00
2023-02-24T19:09:11.370Z,14.20
2023-02-24T19:11:40.248Z,15.30
2023-02-24T19:14:07.265Z,14.57
2023-02-24T19:16:34.143Z,15.73
2023-02-24T19:19:00.709Z,14.47
2023-02-24T19:21:30.427Z,15.63
2023-02-24T19:24:03.076Z,14.53
2023-02-24T19:26:29.848Z,14.67
2023-02-24T19:28:58.045Z,14.80
2023-02-24T19:31:29.139Z,14.90
2023-02-24T19:34:02.395Z,16.63
2023-02-24T19:36:31.600Z,14.17
2023-02-24T19:38:58.084Z,14.67
2023-02-24T19:41:24.760Z,12.43
2023-02-24T19:43:51.590Z,13.53
2023-02-24T19:46:19.242Z,13.70
2023-02-24T19:48:45.884Z,13.07
2023-02-24T19:51:22.083Z,13.63
2023-02-24T19:53:52.936Z,12.17
2023-02-24T19:56:31.395Z,11.87
2023-02-24T19:59:00.228Z,13.03
2023-02-24T20:01:29.455Z,12.40
2023-02-24T20:03:59.181Z,13.20
2023-02-24T20:06:35.426Z,13.70
2023-02-24T20:09:08.596Z,12.50
2023-02-24T20:11:37.553Z,11.60
2023-02-24T20:14:06.034Z,11.40
2023-02-24T20:16:33.974Z,11.73
2023-02-24T20:19:01.858Z,11.27
2023-02-24T20:21:28.562Z,10.50
2023-02-24T20:23:57.800Z,11.77
2023-02-24T20:26:24.526Z,12.43
2023-02-24T20:28:51.107Z,12.27
2023-02-24T20:31:18.980Z,11.10
2023-02-24T20:33:48.829Z,10.27
2023-02-24T20:36:20.610Z,11.53
2023-02-24T20:38:47.553Z,12.17
2023-02-24T20:41:14.214Z,10.63
2023-02-24T20:43:40.696Z,10.87
2023-02-24T20:46:23.599Z,10.93
2023-02-24T20:48:58.597Z,11.10
2023-02-24T20:51:27.403Z,10.90
2023-02-24T20:53:58.295Z,10.77
2023-02-24T20:56:28.140Z,11.73
2023-02-24T20:59:12.987Z,10.53
2023-02-24T21:01:40.239Z,10.70
2023-02-24T21:04:08.048Z,10.87
2023-02-24T21:06:36.159Z,9.63
2023-02-24T21:09:03.185Z,10.07
2023-02-24T21:11:30.902Z,9.70
2023-02-24T21:13:57.910Z,10.47
2023-02-24T21:16:26.432Z,9.80
2023-02-24T21:18:55.040Z,10.20
2023-02-24T21:21:21.768Z,10.23
2023-02-24T21:23:48.711Z,10.50
2023-02-24T21:26:15.548Z,10.33
2023-02-24T21:28:42.046Z,11.43
2023-02-24T21:31:16.186Z,12.70
2023-02-24T21:33:43.124Z,13.07
2023-02-24T21:36:14.164Z,13.30
2023-02-24T21:38:41.468Z,12.57
2023-02-24T21:41:13.977Z,12.27
2023-02-24T21:43:41.901Z,11.73
2023-02-24T21:46:08.633Z,10.13
2023-02-24T21:48:35.211Z,10.30
2023-02-24T21:51:05.155Z,10.70
2023-02-24T21:53:34.589Z,9.37
2023-02-24T21:56:15.464Z,9.43
2023-02-24T21:58:49.068Z,8.83
2023-02-24T22:01:22.598Z,8.93
2023-02-24T22:03:51.889Z,10.07
2023-02-24T22:06:18.404Z,9.90
2023-02-24T22:08:44.859Z,11.40
2023-02-24T22:11:15.098Z,10.13
2023-02-24T22:13:43.644Z,8.73
2023-02-24T22:16:14.625Z,9.53
2023-02-24T22:18:41.346Z,8.33
2023-02-24T22:21:11.254Z,10.40
2023-02-24T22:23:38.117Z,9.37
2023-02-24T22:26:07.612Z,8.90
2023-02-24T22:28:37.467Z,10.00
2023-02-24T22:31:10.205Z,9.80
2023-02-24T22:33:40.427Z,11.10
2023-02-24T22:36:30.126Z,9.00
2023-02-24T22:38:59.312Z,8.43
2023-02-24T22:41:33.042Z,9.80
2023-02-24T22:44:02.046Z,8.97
2023-02-24T22:46:32.814Z,9.23
2023-02-24T22:48:59.697Z,8.70
2023-02-24T22:51:26.904Z,9.03
2023-02-24T22:53:54.634Z,8.37
2023-02-24T22:56:25.782Z,9.17
2023-02-24T22:58:52.837Z,8.40
2023-02-24T23:01:32.778Z,8.93
2023-02-24T23:04:06.178Z,9.33
2023-02-24T23:06:35.164Z,8.97
2023-02-24T23:09:03.154Z,9.40
2023-02-24T23:11:37.955Z,10.03
2023-02-24T23:14:09.111Z,9.80
2023-02-24T23:16:37.887Z,8.90
2023-02-24T23:19:12.159Z,9.50
2023-02-24T23:21:43.403Z,10.63
2023-02-24T23:24:13.082Z,8.33
2023-02-24T23:26:47.473Z,10.40
2023-02-24T23:29:17.509Z,9.70
2023-02-24T23:31:45.088Z,9.17
2023-02-24T23:34:12.597Z,9.43
2023-02-24T23:36:43.935Z,9.03
2023-02-24T23:39:14.304Z,8.97
2023-02-24T23:41:41.243Z,9.53
2023-02-24T23:44:09.127Z,8.87
2023-02-24T23:46:36.702Z,9.60
2023-02-24T23:49:04.559Z,9.33
2023-02-24T23:51:47.032Z,9.10
2023-02-24T23:54:18.508Z,8.70
2023-02-24T23:56:45.649Z,8.57
2023-02-24T23:59:12.093Z,10.37
